Share

เทศบาลนครลำปาง, ประเทศไทย

12:00 PM ICT วัน เมษายน 25, 2014 (GMT +0700)
Chiang Mai International (VTCC) Elev 1030 ft | 18.77 °N, 98.97 °E | Change Station

Current weather conditions updated 30 minutes ago

Partly Cloudy
มีเมฆคลุมเป็นส่วนๆ
93 ฟาเรนไฮน์
Feels Like 96 ฟาเรนไฮน์
N
7
ลม ความผันแปร ลม from ทางทิศใต้
เวลาพระอาทิตย์ขึ้น 5:58 AM
เวลาพระอาทิตย์ตก 6:41 PM
Moon เดือนเสี้ยว

Today is forecast to be Cooler than yesterday. เกิดพายุฟ้าคะนองกระจาย tonight.

ความดัน 29.89 นิ้ว
ทัศนวิสัย 6.2 ไมล์
เมฆ Few 3500 ft
ดัชนีความร้อน 96 ฟาเรนไฮน์
อุณหภูมิที่อากาศอาจจับตัวเป็นหยาดน้ำค้าง 66 ฟาเรนไฮน์
ความชื้น 41%
Rainfall 0.00 นิ้ว
Snow Depth Not available.
UV 17 out of 16
Pollen Not available.
Air Quality Not available.
Flu Activity Not available.
METAR VTCC 250430Z 19006KT 9999 FEW035 34/19 Q1012 A2989 NOSIG

More Conditions Fewer Conditions

ความดัน 29.89 นิ้ว
ทัศนวิสัย 6.2 ไมล์
เมฆ Few 3500 ft
ดัชนีความร้อน 96 ฟาเรนไฮน์
อุณหภูมิที่อากาศอาจจับตัวเป็นหยาดน้ำค้าง 66 ฟาเรนไฮน์
ความชื้น 41%
Rainfall 0.00 นิ้ว
Snow Depth Not available.
UV 17 out of 16
Pollen Not available.
Air Quality Not available.
Flu Activity Not available.
METAR VTCC 250430Z 19006KT 9999 FEW035 34/19 Q1012 A2989 NOSIG

More Conditions Fewer Conditions

10-Day Weather Forecast

Almanac

ดาราศาสตร์

Apr. 25, 2014 Rise Set
Actual Time 5:58 AM ICT 6:41 PM ICT
Civil Twilight 5:36 AM ICT 7:03 PM ICT
Nautical Twilight 5:09 AM ICT 7:30 PM ICT
Astronomical Twilight 4:43 AM ICT 7:57 PM ICT
Moon 2:48 AM ICT 3:03 PM ICT
Length Of Visible Light 13h 27m
ความยาวของวัน
12h 42m
Tomorrow will be 0m 55s longer.
เดือนเสี้ยว, 19% of the Moon is Illuminated
วันนี้
เดือนเสี้ยว
Apr 29
New
May 6
ไตรมาสแรก
May 14
พระจันทร์เต็มดวง
May 21
ไตรมาสล่าสุด

Yesterday's Extremes

Country Highs Country Lows

Community

  • Deer in evening light
    Deer in evening light
  • Critter
    Critter
  • Jone Runs Falls
    Jone Runs Falls
  • Easter in Shenandoah National Park
    Easter in Shenandoah National Park
  • Sunset at Apalachicola Bay, Florida
    Sunset at Apalachicola Bay, Florida

WunderPhotos

Upload Photos

1,704,858 photos uploaded!

WunderBlogs® & News

Nearby

Snow Depth

Not available.

Coastal Water Temperatures

สถานที่ อุณหภูมิ
No Stations Reporting

Earthquake Activity

City Distance Mag. Time & Date
No recent earthquake activity has been reported nearby.
Minimum magnitude displayed is 2.5.

Nearby Weather Stations

There are no personal weather stations in this area.

What do you think?

We're not finished. Please let us know what you like, what you don't like, and what you are still missing.